createdAt,value
2023-05-03T00:00:00.681Z,8.90
2023-05-03T00:02:49.426Z,8.89
2023-05-03T00:05:39.465Z,8.88
2023-05-03T00:08:27.975Z,8.86
2023-05-03T00:11:16.548Z,8.26
2023-05-03T00:14:05.092Z,8.57
2023-05-03T00:16:53.574Z,8.64
2023-05-03T00:19:42.548Z,8.62
2023-05-03T00:22:32.638Z,8.63
2023-05-03T00:25:21.176Z,8.61
2023-05-03T00:28:09.742Z,8.53
2023-05-03T00:30:58.320Z,8.52
2023-05-03T00:33:46.833Z,8.50
2023-05-03T00:36:37.058Z,8.38
2023-05-03T00:39:27.017Z,8.30
2023-05-03T00:42:15.526Z,8.30
2023-05-03T00:45:06.121Z,8.30
2023-05-03T00:47:54.747Z,8.19
2023-05-03T00:50:43.275Z,8.17
2023-05-03T00:53:32.467Z,8.13
2023-05-03T00:56:22.891Z,8.07
2023-05-03T00:59:12.968Z,8.06
2023-05-03T01:02:01.840Z,8.02
2023-05-03T01:04:50.824Z,7.89
2023-05-03T01:07:47.308Z,8.08
2023-05-03T01:10:41.049Z,7.81
2023-05-03T01:13:39.587Z,8.02
2023-05-03T01:16:32.966Z,7.87
2023-05-03T01:19:29.923Z,7.78
2023-05-03T01:22:23.521Z,7.67
2023-05-03T01:25:15.182Z,7.69
2023-05-03T01:28:03.690Z,7.65
2023-05-03T01:30:54.202Z,7.63
2023-05-03T01:33:50.356Z,7.61
2023-05-03T01:36:40.252Z,7.54
2023-05-03T01:39:33.463Z,7.57
2023-05-03T01:42:23.937Z,7.61
2023-05-03T01:45:13.359Z,7.56
2023-05-03T01:48:01.877Z,7.49
2023-05-03T01:50:50.405Z,7.44
2023-05-03T01:53:38.860Z,7.31
2023-05-03T01:56:27.337Z,7.32
2023-05-03T01:59:17.184Z,7.28
2023-05-03T02:02:05.727Z,7.24
2023-05-03T02:04:54.411Z,7.23
2023-05-03T02:07:43.159Z,7.16
2023-05-03T02:10:31.650Z,7.11
2023-05-03T02:13:20.128Z,7.12
2023-05-03T02:16:10.460Z,7.12
2023-05-03T02:18:59.641Z,7.15
2023-05-03T02:21:48.260Z,6.96
2023-05-03T02:24:37.364Z,7.13
2023-05-03T02:27:25.940Z,7.06
2023-05-03T02:30:14.628Z,7.04
2023-05-03T02:33:04.612Z,7.02
2023-05-03T02:35:53.236Z,7.01
2023-05-03T02:38:41.767Z,6.85
2023-05-03T02:41:30.277Z,6.84
2023-05-03T02:44:18.747Z,6.84
2023-05-03T02:47:07.473Z,6.89
2023-05-03T02:49:57.370Z,6.79
2023-05-03T02:52:46.267Z,6.79
2023-05-03T02:55:35.033Z,6.71
2023-05-03T02:58:23.529Z,6.69
2023-05-03T03:01:12.184Z,6.72
2023-05-03T03:04:01.088Z,6.25
2023-05-03T03:06:53.497Z,6.73
2023-05-03T03:09:42.100Z,6.72
2023-05-03T03:12:30.751Z,6.61
2023-05-03T03:15:19.316Z,6.67
2023-05-03T03:18:07.891Z,6.61
2023-05-03T03:20:56.536Z,6.55
2023-05-03T03:23:46.398Z,6.48
2023-05-03T03:26:34.870Z,6.47
2023-05-03T03:29:23.346Z,6.45
2023-05-03T03:32:11.849Z,6.46
2023-05-03T03:35:00.660Z,6.41
2023-05-03T03:37:49.100Z,6.41
2023-05-03T03:40:39.010Z,6.37
2023-05-03T03:43:27.608Z,6.29
2023-05-03T03:46:16.188Z,6.18
2023-05-03T03:49:04.814Z,6.17
2023-05-03T03:51:53.275Z,6.20
2023-05-03T03:54:41.734Z,6.19
2023-05-03T03:57:31.574Z,6.13
2023-05-03T04:00:20.201Z,5.90
2023-05-03T04:03:08.907Z,6.15
2023-05-03T04:05:57.509Z,6.17
2023-05-03T04:08:46.045Z,6.18
2023-05-03T04:11:34.965Z,6.21
2023-05-03T04:14:24.812Z,6.25
2023-05-03T04:17:13.305Z,6.30
2023-05-03T04:20:04.230Z,6.32
2023-05-03T04:22:52.955Z,6.33
2023-05-03T04:25:48.406Z,6.31
2023-05-03T04:28:38.386Z,6.31
2023-05-03T04:31:28.324Z,6.29
2023-05-03T04:34:16.923Z,6.27
2023-05-03T04:37:06.080Z,6.04
2023-05-03T04:39:54.591Z,6.27
2023-05-03T04:42:43.718Z,6.27
2023-05-03T04:45:32.413Z,6.33
2023-05-03T04:48:22.241Z,6.44
2023-05-03T04:51:10.706Z,6.48
2023-05-03T04:53:59.599Z,6.37
2023-05-03T04:56:48.113Z,6.42
2023-05-03T04:59:36.589Z,6.50
2023-05-03T05:02:27.053Z,6.50
2023-05-03T05:05:18.241Z,6.61
2023-05-03T05:08:08.939Z,6.76
2023-05-03T05:10:57.393Z,6.83
2023-05-03T05:13:45.900Z,6.99
2023-05-03T05:16:34.614Z,7.16
2023-05-03T05:19:23.285Z,7.26
2023-05-03T05:22:13.731Z,7.29
2023-05-03T05:25:02.234Z,7.22
2023-05-03T05:27:50.696Z,7.09
2023-05-03T05:30:39.202Z,7.30
2023-05-03T05:33:27.996Z,7.41
2023-05-03T05:36:19.631Z,7.34
2023-05-03T05:39:10.125Z,7.43
2023-05-03T05:41:58.559Z,7.51
2023-05-03T05:44:47.035Z,7.65
2023-05-03T05:47:35.624Z,7.84
2023-05-03T05:50:24.233Z,8.05
2023-05-03T05:53:12.762Z,8.29
2023-05-03T05:56:02.865Z,8.52
2023-05-03T05:58:51.545Z,8.56
2023-05-03T06:01:41.667Z,8.92
2023-05-03T06:04:30.278Z,9.22
2023-05-03T06:07:18.811Z,9.31
2023-05-03T06:10:08.488Z,9.45
2023-05-03T06:12:58.492Z,9.68
2023-05-03T06:15:47.108Z,9.56
2023-05-03T06:18:35.650Z,9.90
2023-05-03T06:21:24.127Z,10.10
2023-05-03T06:24:12.905Z,10.23
2023-05-03T06:27:01.363Z,10.38
2023-05-03T06:29:51.474Z,10.31
2023-05-03T06:32:40.813Z,10.09
2023-05-03T06:35:29.405Z,10.42
2023-05-03T06:38:18.568Z,10.65
2023-05-03T06:41:07.069Z,10.75
2023-05-03T06:43:55.660Z,10.54
2023-05-03T06:46:45.648Z,10.94
2023-05-03T06:49:34.189Z,10.91
2023-05-03T06:52:22.681Z,11.17
2023-05-03T06:55:11.526Z,11.18
2023-05-03T06:58:00.561Z,11.25
2023-05-03T07:00:53.163Z,11.43
2023-05-03T07:03:43.147Z,11.48
2023-05-03T07:06:35.537Z,11.83
2023-05-03T07:09:42.813Z,11.98
2023-05-03T07:12:31.974Z,12.25
2023-05-03T07:15:20.717Z,12.25
2023-05-03T07:18:09.228Z,12.38
2023-05-03T07:21:01.655Z,12.72
2023-05-03T07:23:50.123Z,12.90
2023-05-03T07:26:38.616Z,13.17
2023-05-03T07:29:27.431Z,13.22
2023-05-03T07:32:16.680Z,13.49
2023-05-03T07:35:09.970Z,13.78
2023-05-03T07:37:59.862Z,13.95
2023-05-03T07:40:48.298Z,13.87
2023-05-03T07:43:36.841Z,14.04
2023-05-03T07:46:25.578Z,14.33
2023-05-03T07:49:14.228Z,14.26
2023-05-03T07:52:03.582Z,14.29
2023-05-03T07:54:54.141Z,14.60
2023-05-03T07:57:43.276Z,14.38
2023-05-03T08:00:31.948Z,14.31
2023-05-03T08:03:20.625Z,14.61
2023-05-03T08:06:09.341Z,14.35
2023-05-03T08:08:57.898Z,14.73
2023-05-03T08:11:47.743Z,15.09
2023-05-03T08:14:37.134Z,14.71
2023-05-03T08:17:26.300Z,14.97
2023-05-03T08:20:15.601Z,15.14
2023-05-03T08:23:04.139Z,15.68
2023-05-03T08:25:52.700Z,15.83
2023-05-03T08:28:42.929Z,15.64
2023-05-03T08:31:31.749Z,16.13
2023-05-03T08:34:20.274Z,16.53
2023-05-03T08:37:08.775Z,16.60
2023-05-03T08:39:57.293Z,16.75
2023-05-03T08:42:47.041Z,16.46
2023-05-03T08:45:37.147Z,16.33
2023-05-03T08:48:25.704Z,15.94
2023-05-03T08:51:15.058Z,15.97
2023-05-03T08:54:03.833Z,16.33
2023-05-03T08:56:52.680Z,16.29
2023-05-03T08:59:50.550Z,16.58
2023-05-03T09:02:41.167Z,16.78
2023-05-03T09:05:38.977Z,16.88
2023-05-03T09:08:28.146Z,16.87
2023-05-03T09:11:23.835Z,17.13
2023-05-03T09:14:13.913Z,16.55
2023-05-03T09:17:16.514Z,16.30
2023-05-03T09:20:09.020Z,16.71
2023-05-03T09:22:57.607Z,16.73
2023-05-03T09:25:47.392Z,16.88
2023-05-03T09:28:42.366Z,17.10
2023-05-03T09:31:32.068Z,17.09
2023-05-03T09:34:23.559Z,17.48
2023-05-03T09:37:14.772Z,17.71
2023-05-03T09:40:08.691Z,17.60
2023-05-03T09:43:09.169Z,17.50
2023-05-03T09:46:09.704Z,17.61
2023-05-03T09:48:58.315Z,17.72
2023-05-03T09:51:46.911Z,17.65
2023-05-03T09:54:36.877Z,17.72
2023-05-03T09:57:25.887Z,17.83
2023-05-03T10:00:16.857Z,18.07
2023-05-03T10:03:09.179Z,17.92
2023-05-03T10:06:00.663Z,18.04
2023-05-03T10:08:52.734Z,18.19
2023-05-03T10:11:45.596Z,18.18
2023-05-03T10:14:34.108Z,18.04
2023-05-03T10:17:39.486Z,17.84
2023-05-03T10:20:37.575Z,17.81
2023-05-03T10:23:29.169Z,17.71
2023-05-03T10:26:17.737Z,18.00
2023-05-03T10:29:08.252Z,17.66
2023-05-03T10:31:56.992Z,17.95
2023-05-03T10:34:46.445Z,17.90
2023-05-03T10:37:36.093Z,17.81
2023-05-03T10:40:25.013Z,17.77
2023-05-03T10:43:44.663Z,18.05
2023-05-03T10:46:36.442Z,18.50
2023-05-03T10:49:26.448Z,18.60
2023-05-03T10:52:49.692Z,18.61
2023-05-03T10:55:38.586Z,18.28
2023-05-03T10:58:27.083Z,18.05
2023-05-03T11:01:17.301Z,17.78
2023-05-03T11:04:09.441Z,17.81
2023-05-03T11:06:58.974Z,18.20
2023-05-03T11:09:47.921Z,18.56
2023-05-03T11:12:36.545Z,18.55
2023-05-03T11:15:25.062Z,18.67
2023-05-03T11:18:13.655Z,18.77
2023-05-03T11:21:03.806Z,18.70
2023-05-03T11:23:52.320Z,19.03
2023-05-03T11:26:40.984Z,18.70
2023-05-03T11:29:29.565Z,18.44
2023-05-03T11:32:19.363Z,18.19
2023-05-03T11:35:08.437Z,18.85
2023-05-03T11:37:58.486Z,17.76
2023-05-03T11:40:47.057Z,18.54
2023-05-03T11:43:36.914Z,18.81
2023-05-03T11:46:28.684Z,18.88
2023-05-03T11:49:19.746Z,18.84
2023-05-03T11:52:08.965Z,18.66
2023-05-03T11:54:58.902Z,18.32
2023-05-03T11:57:47.426Z,18.86
2023-05-03T12:00:37.770Z,19.20
2023-05-03T12:03:31.213Z,18.90
2023-05-03T12:06:21.790Z,19.11
2023-05-03T12:09:16.793Z,19.53
2023-05-03T12:12:10.704Z,19.10
2023-05-03T12:15:03.830Z,18.88
2023-05-03T12:17:59.947Z,19.07
2023-05-03T12:21:30.195Z,19.22
2023-05-03T12:24:06.609Z,19.33
2023-05-03T12:26:57.309Z,19.24
2023-05-03T12:29:47.819Z,19.66
2023-05-03T12:32:38.887Z,20.23
2023-05-03T12:35:28.382Z,20.20
2023-05-03T12:38:18.024Z,19.94
2023-05-03T12:41:09.198Z,19.79
2023-05-03T12:44:03.012Z,19.42
2023-05-03T12:46:53.609Z,19.88
2023-05-03T12:49:45.916Z,20.05
2023-05-03T12:52:38.189Z,19.91
2023-05-03T12:55:27.742Z,19.97
2023-05-03T13:01:46.910Z,20.01
2023-05-03T13:04:56.098Z,20.07
2023-05-03T13:07:32.708Z,20.40
2023-05-03T13:10:29.632Z,20.29
2023-05-03T13:13:18.411Z,19.73
2023-05-03T13:16:08.047Z,20.39
2023-05-03T13:18:56.647Z,20.30
2023-05-03T13:21:48.105Z,20.21
2023-05-03T13:24:36.788Z,19.89
2023-05-03T13:27:25.348Z,20.28
2023-05-03T13:30:14.489Z,20.47
2023-05-03T13:33:03.058Z,20.36
2023-05-03T13:35:51.562Z,20.23
2023-05-03T13:38:41.892Z,20.22
2023-05-03T13:41:30.526Z,20.16
2023-05-03T13:44:19.308Z,20.32
2023-05-03T13:47:07.820Z,20.33
2023-05-03T13:49:57.200Z,20.22
2023-05-03T13:52:45.950Z,20.34
2023-05-03T13:55:35.879Z,20.53
2023-05-03T13:58:24.393Z,20.32
2023-05-03T14:01:13.715Z,20.36
2023-05-03T14:04:02.382Z,19.94
2023-05-03T14:06:50.947Z,19.90
2023-05-03T14:09:39.641Z,20.05
2023-05-03T14:12:29.601Z,20.08
2023-05-03T14:15:18.943Z,20.20
2023-05-03T14:18:07.929Z,20.36
2023-05-03T14:20:57.083Z,20.34
2023-05-03T14:23:46.030Z,20.31
2023-05-03T14:26:34.862Z,20.34
2023-05-03T14:29:24.692Z,20.19
2023-05-03T14:32:13.481Z,20.44
2023-05-03T14:35:01.969Z,20.35
2023-05-03T14:37:50.765Z,20.32
2023-05-03T14:40:39.350Z,20.37
2023-05-03T14:43:28.396Z,20.17
2023-05-03T14:46:18.253Z,20.06
2023-05-03T14:49:07.083Z,20.07
2023-05-03T14:51:55.685Z,20.23
2023-05-03T14:54:44.524Z,20.33
2023-05-03T14:57:33.794Z,20.36
2023-05-03T15:00:22.420Z,20.29
2023-05-03T15:03:13.063Z,20.18
2023-05-03T15:06:01.605Z,19.98
2023-05-03T15:08:51.369Z,20.13
2023-05-03T15:11:40.020Z,20.17
2023-05-03T15:14:28.816Z,20.42
2023-05-03T15:17:17.527Z,20.52
2023-05-03T15:20:10.295Z,20.43
2023-05-03T15:22:58.811Z,20.20
2023-05-03T15:25:47.329Z,20.26
2023-05-03T15:28:35.793Z,20.20
2023-05-03T15:31:24.507Z,19.35
2023-05-03T15:34:13.077Z,20.16
2023-05-03T15:37:03.059Z,20.29
2023-05-03T15:39:51.707Z,20.28
2023-05-03T15:42:40.615Z,20.10
2023-05-03T15:45:29.147Z,20.02
2023-05-03T15:48:17.696Z,19.89
2023-05-03T15:51:06.564Z,19.88
2023-05-03T15:53:56.517Z,19.88
2023-05-03T15:56:45.309Z,19.92
2023-05-03T15:59:33.863Z,19.90
2023-05-03T16:02:22.529Z,19.81
2023-05-03T16:05:12.525Z,19.81
2023-05-03T16:08:01.147Z,19.87
2023-05-03T16:10:51.363Z,19.94
2023-05-03T16:13:39.965Z,19.80
2023-05-03T16:16:28.570Z,19.64
2023-05-03T16:19:17.084Z,19.63
2023-05-03T16:22:05.917Z,19.63
2023-05-03T16:24:54.461Z,19.60
2023-05-03T16:27:44.492Z,19.54
2023-05-03T16:30:33.653Z,19.60
2023-05-03T16:33:22.187Z,19.54
2023-05-03T16:36:11.291Z,19.47
2023-05-03T16:39:00.094Z,19.44
2023-05-03T16:41:48.614Z,19.40
2023-05-03T16:44:38.711Z,19.31
2023-05-03T16:47:27.311Z,19.37
2023-05-03T16:50:17.525Z,19.43
2023-05-03T16:53:06.095Z,19.41
2023-05-03T16:55:55.309Z,19.37
2023-05-03T16:58:44.531Z,19.31
2023-05-03T17:01:34.473Z,19.27
2023-05-03T17:04:23.462Z,19.31
2023-05-03T17:07:12.000Z,19.18
2023-05-03T17:10:01.107Z,19.02
2023-05-03T17:12:49.699Z,19.09
2023-05-03T17:15:38.416Z,19.08
2023-05-03T17:18:28.726Z,18.88
2023-05-03T17:21:19.087Z,18.88
2023-05-03T17:24:08.527Z,18.81
2023-05-03T17:26:57.049Z,18.82
2023-05-03T17:29:45.531Z,18.81
2023-05-03T17:32:34.431Z,18.79
2023-05-03T17:35:24.304Z,18.67
2023-05-03T17:38:12.844Z,18.63
2023-05-03T17:41:04.877Z,18.31
2023-05-03T17:43:53.671Z,18.37
2023-05-03T17:46:42.999Z,18.35
2023-05-03T17:49:33.515Z,18.39
2023-05-03T17:52:23.348Z,18.29
2023-05-03T17:55:12.234Z,18.25
2023-05-03T17:58:00.788Z,18.31
2023-05-03T18:00:49.357Z,18.25
2023-05-03T18:03:38.376Z,18.14
2023-05-03T18:06:28.034Z,18.10
2023-05-03T18:09:18.115Z,18.07
2023-05-03T18:12:07.286Z,17.82
2023-05-03T18:14:59.458Z,17.94
2023-05-03T18:17:48.381Z,17.73
2023-05-03T18:20:37.105Z,17.80
2023-05-03T18:23:25.594Z,17.55
2023-05-03T18:26:15.389Z,17.57
2023-05-03T18:29:04.033Z,17.54
2023-05-03T18:31:54.676Z,17.40
2023-05-03T18:34:43.559Z,17.39
2023-05-03T18:37:32.075Z,17.26
2023-05-03T18:40:20.734Z,17.27
2023-05-03T18:43:10.655Z,17.12
2023-05-03T18:45:59.270Z,17.14
2023-05-03T18:48:48.218Z,16.98
2023-05-03T18:51:37.086Z,16.86
2023-05-03T18:54:25.632Z,16.75
2023-05-03T18:57:14.223Z,16.53
2023-05-03T19:00:06.359Z,16.56
2023-05-03T19:02:54.904Z,16.44
2023-05-03T19:05:43.558Z,16.34
2023-05-03T19:08:32.135Z,16.29
2023-05-03T19:11:20.707Z,16.22
2023-05-03T19:14:09.367Z,16.10
2023-05-03T19:16:59.624Z,16.04
2023-05-03T19:19:48.446Z,15.97
2023-05-03T19:22:37.215Z,15.89
2023-05-03T19:25:25.771Z,15.83
2023-05-03T19:28:14.264Z,15.71
2023-05-03T19:31:04.259Z,15.24
2023-05-03T19:33:54.435Z,15.53
2023-05-03T19:36:42.924Z,15.52
2023-05-03T19:39:35.475Z,15.40
2023-05-03T19:42:23.984Z,15.37
2023-05-03T19:45:13.339Z,15.26
2023-05-03T19:48:01.943Z,15.19
2023-05-03T19:50:51.871Z,15.09
2023-05-03T19:53:40.343Z,15.22
2023-05-03T19:56:29.138Z,14.93
2023-05-03T19:59:18.107Z,15.11
2023-05-03T20:02:07.497Z,15.02
2023-05-03T20:04:56.330Z,14.87
2023-05-03T20:07:47.064Z,14.76
2023-05-03T20:10:37.059Z,14.39
2023-05-03T20:13:27.577Z,14.57
2023-05-03T20:16:16.996Z,14.48
2023-05-03T20:19:06.970Z,14.38
2023-05-03T20:21:55.505Z,14.22
2023-05-03T20:24:45.784Z,14.16
2023-05-03T20:27:34.292Z,14.13
2023-05-03T20:30:23.222Z,14.04
2023-05-03T20:33:12.375Z,14.04
2023-05-03T20:36:00.932Z,13.94
2023-05-03T20:38:49.647Z,13.82
2023-05-03T20:41:39.472Z,13.68
2023-05-03T20:44:28.525Z,13.65
2023-05-03T20:47:17.081Z,13.57
2023-05-03T20:50:06.969Z,13.49
2023-05-03T20:52:56.312Z,13.45
2023-05-03T20:55:45.054Z,13.39
2023-05-03T20:58:35.159Z,13.05
2023-05-03T21:01:23.718Z,13.28
2023-05-03T21:04:12.177Z,13.25
2023-05-03T21:07:00.630Z,13.23
2023-05-03T21:09:49.343Z,13.19
2023-05-03T21:12:37.908Z,13.12
2023-05-03T21:15:29.696Z,13.17
2023-05-03T21:18:19.061Z,13.09
2023-05-03T21:21:07.858Z,13.04
2023-05-03T21:23:56.305Z,12.97
2023-05-03T21:26:44.796Z,12.93
2023-05-03T21:29:33.454Z,12.96
2023-05-03T21:32:23.295Z,12.93
2023-05-03T21:35:12.000Z,12.96
2023-05-03T21:38:00.523Z,12.97
2023-05-03T21:40:48.960Z,12.96
2023-05-03T21:43:37.550Z,12.93
2023-05-03T21:46:26.077Z,12.78
2023-05-03T21:49:16.093Z,12.68
2023-05-03T21:52:04.922Z,12.62
2023-05-03T21:54:53.449Z,12.56
2023-05-03T21:57:41.915Z,12.54
2023-05-03T22:00:31.670Z,12.50
2023-05-03T22:03:20.259Z,12.44
2023-05-03T22:06:10.813Z,12.37
2023-05-03T22:08:59.721Z,12.24
2023-05-03T22:11:48.439Z,12.26
2023-05-03T22:14:36.909Z,12.23
2023-05-03T22:17:25.997Z,12.10
2023-05-03T22:20:14.768Z,12.09
2023-05-03T22:23:04.674Z,12.07
2023-05-03T22:25:53.245Z,12.02
2023-05-03T22:28:41.746Z,11.89
2023-05-03T22:31:31.137Z,11.84
2023-05-03T22:34:19.702Z,11.72
2023-05-03T22:37:08.179Z,11.54
2023-05-03T22:39:58.052Z,11.53
2023-05-03T22:42:46.749Z,11.48
2023-05-03T22:45:35.328Z,11.43
2023-05-03T22:48:29.547Z,11.36
2023-05-03T22:51:18.015Z,11.29
2023-05-03T22:54:06.616Z,11.16
2023-05-03T22:56:58.486Z,11.13
2023-05-03T22:59:47.011Z,11.10
2023-05-03T23:02:35.804Z,11.04
2023-05-03T23:05:24.298Z,10.90
2023-05-03T23:08:13.741Z,10.89
2023-05-03T23:11:02.229Z,10.82
2023-05-03T23:13:52.277Z,10.79
2023-05-03T23:16:40.824Z,10.72
2023-05-03T23:19:29.297Z,10.60
2023-05-03T23:22:18.051Z,10.57
2023-05-03T23:25:06.935Z,10.59
2023-05-03T23:27:55.438Z,10.53
2023-05-03T23:30:46.223Z,10.43
2023-05-03T23:33:35.320Z,10.29
2023-05-03T23:36:23.859Z,10.29
2023-05-03T23:39:12.640Z,10.24
2023-05-03T23:42:01.116Z,10.23
2023-05-03T23:44:55.423Z,10.22
2023-05-03T23:47:45.993Z,10.18
2023-05-03T23:50:34.437Z,10.09
2023-05-03T23:53:22.862Z,10.10
2023-05-03T23:56:11.676Z,10.04
2023-05-03T23:59:01.427Z,9.97
